createdAt,value
2022-11-14T00:06:34.852Z,34.63
2022-11-14T00:14:08.750Z,30.85
2022-11-14T00:21:44.005Z,32.97
2022-11-14T00:29:18.188Z,34.08
2022-11-14T00:36:53.316Z,31.97
2022-11-14T00:44:27.198Z,31.42
2022-11-14T00:52:02.419Z,32.63
2022-11-14T00:59:36.271Z,33.80
2022-11-14T01:07:11.438Z,34.45
2022-11-14T01:14:45.258Z,33.03
2022-11-14T01:22:20.464Z,36.23
2022-11-14T01:29:54.351Z,31.02
2022-11-14T01:37:29.620Z,34.83
2022-11-14T01:45:23.649Z,35.20
2022-11-14T01:52:58.869Z,31.45
2022-11-14T02:00:32.859Z,35.53
2022-11-14T02:08:12.607Z,38.13
2022-11-14T02:15:46.481Z,36.45
2022-11-14T02:23:28.179Z,35.10
2022-11-14T02:31:03.241Z,35.85
2022-11-14T02:38:38.452Z,37.35
2022-11-14T02:46:12.394Z,37.10
2022-11-14T02:53:47.559Z,33.77
2022-11-14T03:01:21.904Z,35.10
2022-11-14T03:08:57.288Z,35.38
2022-11-14T03:16:31.109Z,35.65
2022-11-14T03:24:07.133Z,37.87
2022-11-14T03:31:41.316Z,34.08
2022-11-14T03:39:16.897Z,36.77
2022-11-14T03:46:50.765Z,37.50
2022-11-14T03:54:26.016Z,34.90
2022-11-14T04:01:59.829Z,33.60
2022-11-14T04:09:35.237Z,30.23
2022-11-14T04:17:08.956Z,32.47
2022-11-14T04:24:44.112Z,32.95
2022-11-14T04:32:18.213Z,33.92
2022-11-14T04:39:53.438Z,35.37
2022-11-14T04:47:27.252Z,32.80
2022-11-14T04:55:02.625Z,36.22
2022-11-14T05:02:36.494Z,33.67
2022-11-14T05:10:11.929Z,35.67
2022-11-14T05:17:45.777Z,33.97
2022-11-14T05:25:21.599Z,35.97
2022-11-14T05:32:56.270Z,34.70
2022-11-14T05:40:31.505Z,32.45
2022-11-14T05:48:05.763Z,34.83
2022-11-14T05:55:40.963Z,37.03
2022-11-14T06:03:15.511Z,35.30
2022-11-14T06:10:50.842Z,34.72
2022-11-14T06:18:24.673Z,34.63
2022-11-14T06:26:03.860Z,34.70
2022-11-14T06:33:38.497Z,35.05
2022-11-14T06:41:17.209Z,35.22
2022-11-14T06:48:52.458Z,36.83
2022-11-14T06:56:27.922Z,35.60
2022-11-14T07:04:02.392Z,33.30
2022-11-14T07:11:37.901Z,33.30
2022-11-14T07:19:12.555Z,35.55
2022-11-14T07:34:21.859Z,35.20
2022-11-14T07:41:57.059Z,34.97
2022-11-14T07:49:30.825Z,35.20
2022-11-14T07:57:06.315Z,35.75
2022-11-14T08:04:40.111Z,33.40
2022-11-14T08:12:15.303Z,33.17
2022-11-14T08:19:49.268Z,32.60
2022-11-14T08:27:24.699Z,33.40
2022-11-14T08:34:58.515Z,29.88
2022-11-14T08:42:33.825Z,32.28
2022-11-14T08:50:07.917Z,31.10
2022-11-14T08:57:48.085Z,29.57
2022-11-14T09:05:23.156Z,29.77
2022-11-14T09:12:59.165Z,30.40
2022-11-14T09:20:36.252Z,27.92
2022-11-14T09:28:15.226Z,29.23
2022-11-14T09:35:49.311Z,27.52
2022-11-14T09:43:40.715Z,27.13
2022-11-14T09:51:18.049Z,26.77
2022-11-14T09:58:53.507Z,25.88
2022-11-14T10:06:31.036Z,27.25
2022-11-14T10:14:29.612Z,24.80
2022-11-14T10:22:18.069Z,26.85
2022-11-14T10:30:04.555Z,23.38
2022-11-14T10:37:43.032Z,25.73
2022-11-14T10:45:26.836Z,26.77
2022-11-14T10:53:05.236Z,26.00
2022-11-14T11:00:40.704Z,24.00
2022-11-14T11:08:47.798Z,24.90
2022-11-14T11:16:25.784Z,23.20
2022-11-14T11:23:59.641Z,23.55
2022-11-14T11:31:53.620Z,25.05
2022-11-14T11:39:31.877Z,23.73
2022-11-14T11:47:13.371Z,23.65
2022-11-14T11:55:03.641Z,22.85
2022-11-14T12:02:49.504Z,21.73
2022-11-14T12:10:27.686Z,23.63
2022-11-14T12:18:19.872Z,21.73
2022-11-14T12:26:20.910Z,21.40
2022-11-14T12:34:01.770Z,22.20
2022-11-14T12:41:39.355Z,21.85
2022-11-14T12:49:39.364Z,22.30
2022-11-14T12:57:43.754Z,21.00
2022-11-14T13:05:26.467Z,21.20
2022-11-14T13:13:25.129Z,21.60
2022-11-14T16:19:29.008Z,18.40
2022-11-14T16:27:03.060Z,18.95
2022-11-14T16:34:38.265Z,17.93
2022-11-14T16:42:12.832Z,18.05
2022-11-14T16:49:48.320Z,20.63
2022-11-14T16:57:22.121Z,17.63
2022-11-14T17:04:57.537Z,19.15
2022-11-14T17:12:32.184Z,17.95
2022-11-14T17:20:10.396Z,17.58
2022-11-14T17:27:44.212Z,17.80
2022-11-14T17:35:19.832Z,20.25
2022-11-14T17:42:54.268Z,20.55
2022-11-14T17:50:33.159Z,17.98
2022-11-14T17:58:11.310Z,18.58
2022-11-14T18:05:46.605Z,18.87
2022-11-14T18:13:20.370Z,18.88
2022-11-14T18:20:55.844Z,20.08
2022-11-14T18:28:29.918Z,18.02
2022-11-14T18:36:08.845Z,19.93
2022-11-14T18:43:44.423Z,18.48
2022-11-14T18:51:21.453Z,19.58
2022-11-14T18:58:56.491Z,19.88
2022-11-14T19:06:34.774Z,20.20
2022-11-14T19:14:08.580Z,19.27
2022-11-14T19:21:44.687Z,19.27
2022-11-14T19:29:18.560Z,18.33
2022-11-14T19:37:01.996Z,19.43
2022-11-14T19:44:35.830Z,20.98
2022-11-14T19:52:11.756Z,18.63
2022-11-14T19:59:45.875Z,20.92
2022-11-14T20:07:21.384Z,18.77
2022-11-14T20:14:55.337Z,21.15
2022-11-14T20:22:30.961Z,20.00
2022-11-14T20:30:05.838Z,20.55
2022-11-14T20:37:41.175Z,19.40
2022-11-14T20:45:15.153Z,19.15
2022-11-14T20:52:50.475Z,19.60
2022-11-14T21:00:24.452Z,20.65
2022-11-14T21:07:59.610Z,19.07
2022-11-14T21:15:35.551Z,19.17
2022-11-14T21:23:10.749Z,17.48
2022-11-14T21:30:44.673Z,18.77
2022-11-14T21:38:21.186Z,19.93
2022-11-14T21:45:59.748Z,20.02
2022-11-14T21:53:35.976Z,19.25
2022-11-14T22:01:11.594Z,20.60
2022-11-14T22:08:46.868Z,19.27
2022-11-14T22:16:21.030Z,20.38
2022-11-14T22:23:56.851Z,19.53
2022-11-14T22:31:30.825Z,21.25
2022-11-14T22:39:06.948Z,19.40
2022-11-14T22:46:40.759Z,21.08
2022-11-14T22:54:15.930Z,21.33
2022-11-14T23:01:49.827Z,20.60
2022-11-14T23:09:24.878Z,18.80
2022-11-14T23:16:58.681Z,18.98
2022-11-14T23:24:33.844Z,20.47
2022-11-14T23:32:07.672Z,20.55
2022-11-14T23:39:43.643Z,20.23
2022-11-14T23:47:17.537Z,20.15
2022-11-14T23:54:52.755Z,19.60
